Alden, Alabama
Current Conditions -  °F | °C
As of 8:53 AM on Thursday 18 Dec 2014 (Local Time) from KBHM Reporting Station
Overcast Overcast  
Wind Chill: 38°   Ceiling: 9000
Heat Index: 41°   Visibility: 10mi
Dew Point: 32°   Wind: 5mph
Humidity: 70%   Direction: 50°NE
Pressure: 30.22"   Gusts: NA
Location:  33.652°N, 86.9784°W
Report Text: KBHM 181453Z 05004KT 10SM SCT065 OVC090 05/00 A3022 RMK AO2 SLP236 T00500000 58006
Loading
Personal Weather Stations






























Interactive Weather Map New forecast layout! Learn more

10-Day Weather Forecast

Advertisements
Track Severe Weather on mobile